Time;durP1;ratioP1;P1;durP2;ratioP2;P2;SDS_P1;SDS_P2;PMS_P1;PMS_P2;Temp;Humidity;BMP_temperature;BMP_pressure;BME280_temperature;BME280_humidity;BME280_pressure;Samples;Min_cycle;Max_cycle;Signal;HPM_P1;HPM_P2
2022/04/11 00:07:17;;;;;;;12.10;6.80;;;;;;;1.19;72.29;98708.27;433119;1269;97923;-42
2022/04/11 00:17:24;;;;;;;12.30;5.90;;;;;;;1.30;72.40;98708.96;433192;1271;108903;-40
2022/04/11 00:27:36;;;;;;;11.60;6.00;;;;;;;1.34;72.22;98709.92;433402;1269;97869;-41
2022/04/11 00:37:43;;;;;;;19.00;8.70;;;;;;;1.26;72.58;98713.05;433065;1270;111653;-41
2022/04/11 00:47:50;;;;;;;27.30;10.70;;;;;;;1.09;72.70;98714.95;433197;1271;108734;-41
2022/04/11 00:57:59;;;;;;;20.30;10.00;;;;;;;0.95;73.18;98719.55;433179;1271;108769;-43
2022/04/11 01:08:10;;;;;;;12.50;6.20;;;;;;;0.90;73.03;98725.17;433246;1271;97910;-42
2022/04/11 01:18:17;;;;;;;9.30;5.30;;;;;;;1.00;73.26;98732.23;433532;1260;109044;-43
2022/04/11 01:28:25;;;;;;;14.30;7.60;;;;;;;1.11;73.38;98736.23;432551;1271;97872;-40
2022/04/11 01:38:32;;;;;;;13.20;5.50;;;;;;;1.10;73.39;98743.10;432526;1271;110940;-41
2022/04/11 01:48:39;;;;;;;12.60;7.30;;;;;;;1.13;73.71;98755.33;432566;1271;108771;-41
2022/04/11 01:58:48;;;;;;;11.90;6.80;;;;;;;1.15;73.93;98765.61;432614;1271;97490;-42
2022/04/11 02:08:55;;;;;;;11.20;6.50;;;;;;;1.13;73.92;98768.80;432512;1270;111078;-41
2022/04/11 02:19:02;;;;;;;10.90;6.20;;;;;;;1.14;73.98;98773.75;432451;1270;108848;-41
2022/04/11 02:29:09;;;;;;;13.90;5.60;;;;;;;1.16;73.98;98776.00;432550;1271;97999;-41
2022/04/11 02:39:16;;;;;;;10.90;6.00;;;;;;;1.27;74.31;98777.61;432467;1270;111033;-41
2022/04/11 02:49:23;;;;;;;10.30;6.50;;;;;;;1.36;74.16;98788.59;432532;1270;108985;-42
2022/04/11 02:59:32;;;;;;;13.50;6.30;;;;;;;1.33;74.29;98790.29;432642;1270;108374;-40
2022/04/11 03:09:39;;;;;;;10.30;7.20;;;;;;;1.24;74.36;98789.74;432439;1270;97892;-41
2022/04/11 03:19:47;;;;;;;11.70;6.50;;;;;;;1.15;74.44;98791.66;432554;1270;110151;-41
2022/04/11 03:29:54;;;;;;;8.10;5.20;;;;;;;0.98;74.51;98801.36;432597;1270;108783;-41
2022/04/11 03:40:03;;;;;;;8.80;5.00;;;;;;;0.91;74.40;98810.43;432539;1270;98016;-41
2022/04/11 03:50:09;;;;;;;9.80;5.20;;;;;;;0.88;74.68;98815.67;432605;1270;111068;-40
2022/04/11 04:00:18;;;;;;;14.00;7.20;;;;;;;0.86;74.51;98833.86;432539;1270;108763;-42
2022/04/11 04:20:31;;;;;;;22.50;11.80;;;;;;;0.75;75.13;98856.79;432718;1270;110524;-40
2022/04/11 04:30:38;;;;;;;13.60;6.90;;;;;;;0.65;75.03;98860.46;432499;1270;108628;-42
2022/04/11 04:50:51;;;;;;;14.00;7.20;;;;;;;0.90;75.19;98872.14;432405;1270;98011;-40
2022/04/11 05:00:59;;;;;;;10.10;7.30;;;;;;;1.15;75.13;98867.20;432561;1270;108974;-43
2022/04/11 05:11:07;;;;;;;19.90;10.00;;;;;;;1.40;75.21;98875.67;432544;1270;96616;-42
2022/04/11 05:21:14;;;;;;;19.10;9.20;;;;;;;1.56;75.31;98891.64;432541;1270;110962;-41
2022/04/11 05:31:22;;;;;;;11.60;6.70;;;;;;;1.77;75.44;98891.83;432538;1270;108783;-41
2022/04/11 05:41:27;;;;;;;10.90;5.30;;;;;;;2.89;75.70;98895.48;432719;1270;109000;-40
2022/04/11 05:51:34;;;;;;;15.30;5.00;;;;;;;3.83;75.04;98894.98;432481;1270;98041;-41
2022/04/11 06:01:41;;;;;;;9.90;5.70;;;;;;;3.81;74.41;98897.59;432592;1270;108897;-40
2022/04/11 06:11:48;;;;;;;12.50;5.50;;;;;;;4.20;74.57;98897.77;432711;1270;98599;-41
2022/04/11 06:21:56;;;;;;;10.60;6.10;;;;;;;3.90;74.08;98904.33;432448;1270;98040;-41
2022/04/11 06:32:04;;;;;;;9.10;4.30;;;;;;;3.48;74.28;98914.52;432625;1270;111235;-41
2022/04/11 06:42:10;;;;;;;7.30;3.90;;;;;;;3.87;74.69;98915.48;432610;1270;108782;-40
2022/04/11 06:52:18;;;;;;;7.10;3.80;;;;;;;5.04;74.52;98914.77;432454;1270;97986;-43
2022/04/11 07:02:25;;;;;;;11.90;4.80;;;;;;;4.98;73.67;98923.82;432581;1270;111166;-40
2022/04/11 07:12:32;;;;;;;6.00;3.20;;;;;;;4.84;73.60;98925.54;432498;1270;108799;-41
2022/04/11 07:22:40;;;;;;;7.70;2.60;;;;;;;4.85;73.43;98931.39;432650;1270;108820;-41
2022/04/11 07:32:47;;;;;;;11.50;3.90;;;;;;;4.72;73.73;98943.45;432574;1270;97933;-41
2022/04/11 07:42:54;;;;;;;10.50;5.40;;;;;;;4.66;73.90;98950.36;432411;1270;108892;-40
2022/04/11 07:53:01;;;;;;;16.60;6.90;;;;;;;4.73;74.15;98952.83;432693;1270;97914;-41
2022/04/11 08:03:07;;;;;;;10.00;6.60;;;;;;;5.14;73.82;98961.96;432549;1270;97534;-40
2022/04/11 08:13:14;;;;;;;8.40;5.80;;;;;;;5.03;73.58;98965.37;432488;1271;108906;-40
2022/04/11 08:23:22;;;;;;;17.70;8.50;;;;;;;5.72;74.14;98969.27;432603;1271;98015;-42
2022/04/11 08:33:28;;;;;;;10.90;7.30;;;;;;;6.05;73.73;98972.45;432699;1270;111114;-41
2022/04/11 08:43:36;;;;;;;9.60;5.60;;;;;;;6.08;73.45;98971.25;432785;1270;107545;-41
2022/04/11 08:53:45;;;;;;;10.00;5.50;;;;;;;5.99;72.85;98965.75;432545;1270;96672;-41
2022/04/11 09:03:52;;;;;;;10.40;5.80;;;;;;;6.25;72.79;98964.90;432770;1270;110044;-40
2022/04/11 09:14:00;;;;;;;13.70;6.10;;;;;;;6.75;71.82;98957.13;428683;1270;5368401;-41
2022/04/11 09:24:17;;;;;;;6.60;5.10;;;;;;;6.98;70.01;98950.56;433046;1270;97919;-42
2022/04/11 09:44:34;;;;;;;8.00;4.50;;;;;;;7.59;68.49;98951.17;432971;1270;110601;-42
2022/04/11 09:55:02;;;;;;;4.40;3.90;;;;;;;7.91;67.38;98948.77;432852;1268;108736;-41
2022/04/11 10:05:12;;;;;;;8.40;4.90;;;;;;;7.53;66.35;98952.34;432926;1270;99370;-45
2022/04/11 10:15:19;;;;;;;6.00;3.00;;;;;;;8.00;65.33;98950.17;432737;1270;111214;-41
2022/04/11 10:25:27;;;;;;;5.80;3.30;;;;;;;8.42;63.88;98942.80;432692;1270;108798;-40
2022/04/11 10:35:40;;;;;;;5.20;2.50;;;;;;;8.49;62.53;98936.77;432918;1270;99420;-41
2022/04/11 10:45:45;;;;;;;3.80;2.10;;;;;;;8.38;59.95;98934.86;432815;1270;109649;-42
2022/04/11 10:55:56;;;;;;;6.80;2.20;;;;;;;8.35;59.14;98931.23;433004;1270;97969;-43
2022/04/11 11:06:15;;;;;;;3.70;2.50;;;;;;;8.20;57.95;98927.73;432767;1270;112555;-42
2022/04/11 11:16:37;;;;;;;3.90;2.80;;;;;;;8.53;58.40;98912.05;432697;1270;109497;-42
2022/04/11 11:27:00;;;;;;;5.60;2.00;;;;;;;8.56;57.83;98909.84;432670;1270;99270;-42
2022/04/11 11:37:11;;;;;;;3.50;2.00;;;;;;;8.91;57.96;98901.70;432876;1270;112447;-42
2022/04/11 11:47:26;;;;;;;1.10;0.50;;;;;;;9.62;58.07;98900.05;432924;1270;108806;-41
2022/04/11 11:57:35;;;;;;;2.80;1.00;;;;;;;10.14;57.14;98884.10;432778;1270;99276;-41
2022/04/11 12:07:42;;;;;;;4.90;1.40;;;;;;;9.21;54.48;98895.39;432797;1270;112466;-44
2022/04/11 12:18:00;;;;;;;5.40;3.50;;;;;;;7.40;58.12;98926.48;432819;1270;108347;-44
2022/04/11 12:28:16;;;;;;;5.10;2.00;;;;;;;6.18;60.66;98914.45;432660;1270;99225;-42
2022/04/11 12:38:41;;;;;;;17.90;8.30;;;;;;;6.27;62.14;98914.93;432816;1270;108771;-42
2022/04/11 12:48:59;;;;;;;22.70;13.20;;;;;;;6.61;63.23;98913.86;432629;1270;98018;-41
2022/04/11 12:59:07;;;;;;;6.80;3.90;;;;;;;7.10;63.74;98907.14;432757;1270;112478;-41
2022/04/11 13:09:14;;;;;;;15.00;5.60;;;;;;;7.27;63.90;98893.73;432813;1270;107856;-40
2022/04/11 13:19:22;;;;;;;4.30;2.50;;;;;;;7.25;64.15;98877.63;432889;1270;99267;-40
2022/04/11 13:39:37;;;;;;;2.60;1.70;;;;;;;8.11;64.04;98868.63;432863;1270;100031;-41
2022/04/11 13:49:44;;;;;;;5.60;2.10;;;;;;;8.53;62.84;98851.59;432813;1270;99270;-41
2022/04/11 13:59:49;;;;;;;8.50;3.00;;;;;;;8.43;61.69;98855.79;432514;1271;108871;-41
2022/04/11 14:09:55;;;;;;;5.50;2.30;;;;;;;7.17;62.06;98862.55;433040;1270;99917;-40
2022/04/11 14:20:03;;;;;;;4.00;1.60;;;;;;;6.63;63.93;98860.15;432783;1270;112512;-41
2022/04/11 14:30:10;;;;;;;3.70;1.40;;;;;;;6.49;64.46;98849.20;432683;1270;106370;-41
2022/04/11 14:40:17;;;;;;;2.20;1.40;;;;;;;6.63;64.71;98844.86;432915;1270;99248;-42
2022/04/11 14:50:24;;;;;;;9.40;3.00;;;;;;;6.72;64.72;98845.21;432787;1270;112314;-42
2022/04/11 15:00:32;;;;;;;3.10;2.20;;;;;;;6.51;64.95;98829.71;432828;1270;109092;-44
2022/04/11 15:10:37;;;;;;;18.50;9.00;;;;;;;6.70;65.35;98826.85;432789;1270;99260;-41
2022/04/11 15:20:43;;;;;;;14.10;9.80;;;;;;;6.96;65.41;98833.44;432851;1270;112411;-43
2022/04/11 15:30:51;;;;;;;19.60;8.30;;;;;;;7.03;65.47;98832.54;432820;1270;107787;-40
2022/04/11 15:40:58;;;;;;;7.30;4.00;;;;;;;7.11;65.19;98823.58;433041;1270;99146;-43
2022/04/11 15:51:07;;;;;;;10.10;5.40;;;;;;;7.05;64.89;98817.61;432827;1270;112294;-41
2022/04/11 16:01:15;;;;;;;11.50;6.50;;;;;;;6.95;64.69;98815.88;432920;1269;108883;-42
2022/04/11 16:11:23;;;;;;;10.40;2.70;;;;;;;6.88;63.99;98818.84;433050;1270;98063;-42
2022/04/11 16:21:29;;;;;;;10.50;5.10;;;;;;;6.99;63.81;98811.19;432759;1270;112390;-41
2022/04/11 16:31:36;;;;;;;18.90;8.40;;;;;;;7.03;63.67;98808.48;432739;1270;106505;-42
2022/04/11 16:41:43;;;;;;;14.00;6.80;;;;;;;6.96;63.53;98810.34;432826;1270;99347;-42
2022/04/11 16:51:51;;;;;;;30.90;12.40;;;;;;;6.80;63.51;98812.98;432638;1270;112541;-43
2022/04/11 17:01:58;;;;;;;27.60;14.40;;;;;;;6.63;63.56;98820.93;432745;1270;108799;-42
2022/04/11 17:12:06;;;;;;;34.50;16.90;;;;;;;6.49;63.59;98822.44;432718;1270;99252;-41
2022/04/11 17:22:13;;;;;;;66.00;35.20;;;;;;;6.36;63.76;98825.35;432941;1270;112267;-41
2022/04/11 17:32:20;;;;;;;44.70;24.60;;;;;;;6.21;63.46;98825.63;432664;1270;108818;-41
2022/04/11 17:42:28;;;;;;;83.70;37.80;;;;;;;6.04;63.40;98835.24;432805;1270;99415;-41
2022/04/11 17:52:36;;;;;;;72.90;35.60;;;;;;;5.81;63.50;98841.34;432843;1270;112686;-41
2022/04/11 18:02:46;;;;;;;128.40;67.80;;;;;;;5.57;63.81;98848.36;432769;1270;108924;-41
2022/04/11 18:12:53;;;;;;;68.80;35.70;;;;;;;5.42;64.01;98862.49;432955;1270;99246;-41
2022/04/11 18:23:01;;;;;;;62.10;32.50;;;;;;;5.41;64.23;98878.91;432805;1270;107747;-41
2022/04/11 18:33:10;;;;;;;77.90;32.80;;;;;;;5.32;64.10;98885.39;432738;1270;99354;-42
2022/04/11 18:43:17;;;;;;;;;;;;;;;5.29;64.12;98900.32;432672;1270;112535;-40
2022/04/11 18:53:24;;;;;;;65.10;31.00;;;;;;;5.01;64.40;98909.66;432764;1271;108774;-40
2022/04/11 19:03:31;;;;;;;66.40;31.80;;;;;;;4.69;64.56;98907.61;432932;1270;99375;-41
2022/04/11 19:23:46;;;;;;;61.20;29.50;;;;;;;4.03;65.19;98906.44;432789;1270;108854;-41
2022/04/11 19:33:53;;;;;;;39.70;20.00;;;;;;;3.88;65.52;98910.66;433088;1270;99808;-43
2022/04/11 19:44:00;;;;;;;37.70;21.60;;;;;;;3.83;65.74;98913.20;432650;1270;109018;-42
2022/04/11 19:54:08;;;;;;;59.90;32.30;;;;;;;3.76;66.02;98910.20;432712;1271;99279;-41
2022/04/11 20:04:15;;;;;;;84.00;37.80;;;;;;;3.60;66.40;98911.49;432943;1271;112479;-40
2022/04/11 20:24:28;;;;;;;140.70;65.40;;;;;;;3.26;66.87;98904.27;432683;1270;97995;-41
2022/04/11 20:34:34;;;;;;;223.10;102.90;;;;;;;3.29;67.19;98905.71;432691;1270;112165;-40
2022/04/11 20:44:41;;;;;;;155.10;75.20;;;;;;;3.39;67.41;98915.21;432537;1271;108842;-41
2022/04/11 21:05:07;;;;;;;228.30;103.10;;;;;;;3.76;67.50;98904.02;432410;1271;112425;-41
2022/04/11 21:15:14;;;;;;;230.60;105.80;;;;;;;3.75;67.82;98905.82;430162;1271;3384806;-41
2022/04/11 21:25:21;;;;;;;227.60;104.20;;;;;;;3.68;68.17;98909.65;432481;1270;99286;-42
2022/04/11 21:35:28;;;;;;;238.00;103.20;;;;;;;3.61;68.33;98910.58;432452;1271;108630;-42
2022/04/11 21:45:35;;;;;;;207.40;94.50;;;;;;;3.47;68.32;98906.26;432553;1271;99257;-40
2022/04/11 21:55:43;;;;;;;124.80;60.60;;;;;;;3.38;68.57;98915.10;432474;1271;112428;-40
2022/04/11 22:05:50;;;;;;;118.90;58.80;;;;;;;3.39;68.65;98918.16;432442;1271;108815;-40
2022/04/11 22:15:57;;;;;;;125.00;60.90;;;;;;;3.49;68.97;98925.02;432529;1271;99409;-41
2022/04/11 22:36:11;;;;;;;135.60;63.40;;;;;;;3.32;69.05;98921.73;432706;1271;99279;-43
2022/04/11 22:46:18;;;;;;;128.70;63.40;;;;;;;3.12;69.32;98925.73;432716;1271;112437;-41
2022/04/11 22:56:25;;;;;;;103.90;50.40;;;;;;;3.06;69.60;98925.04;432477;1270;108613;-42
2022/04/11 23:06:32;;;;;;;101.40;53.10;;;;;;;3.15;69.96;98919.13;432486;1271;99366;-44
2022/04/11 23:16:40;;;;;;;100.80;50.30;;;;;;;3.22;69.89;98912.84;432458;1271;109536;-43
2022/04/11 23:26:47;;;;;;;137.90;63.40;;;;;;;3.20;70.24;98904.25;432461;1271;99272;-40
2022/04/11 23:36:54;;;;;;;143.10;66.90;;;;;;;3.13;70.42;98903.41;432737;1271;112500;-44
2022/04/11 23:47:01;;;;;;;131.10;65.40;;;;;;;3.02;70.56;98900.73;432691;1270;108917;-43
2022/04/11 23:57:08;;;;;;;100.90;53.20;;;;;;;2.96;70.87;98893.07;432449;1270;99251;-40
